Time;durP1;ratioP1;P1;durP2;ratioP2;P2;SDS_P1;SDS_P2;PMS_P1;PMS_P2;Temp;Humidity;BMP_temperature;BMP_pressure;BME280_temperature;BME280_humidity;BME280_pressure;Samples;Min_cycle;Max_cycle;Signal;HPM_P1;HPM_P2
2022/09/29 00:02:19;;;;;;;;;;;6.00;99.90;;;;;;4945712;28;19949;-83
2022/09/29 00:04:45;;;;;;;;;;;6.00;99.90;;;;;;4949391;29;19921;-84
2022/09/29 00:07:10;;;;;;;;;;;6.00;99.90;;;;;;4905498;29;20272;-82
2022/09/29 00:09:37;;;;;;;;;;;6.00;99.90;;;;;;4933133;29;19922;-83
2022/09/29 00:12:02;;;;;;;;;;;6.00;99.90;;;;;;4948289;29;20286;-83
2022/09/29 00:14:28;;;;;;;;;;;5.90;99.90;;;;;;4926484;29;20005;-83
2022/09/29 00:16:54;;;;;;;;;;;5.90;99.90;;;;;;4949494;28;20393;-83
2022/09/29 00:19:20;;;;;;;;;;;5.90;99.90;;;;;;4939562;29;19922;-83
2022/09/29 00:21:45;;;;;;;;;;;5.80;99.90;;;;;;4940071;29;20445;-83
2022/09/29 00:24:11;;;;;;;;;;;5.80;99.90;;;;;;4952247;28;20534;-83
2022/09/29 00:26:37;;;;;;;;;;;5.90;99.90;;;;;;4930109;29;19934;-84
2022/09/29 00:29:03;;;;;;;;;;;5.90;99.90;;;;;;4938204;29;19954;-83
2022/09/29 00:31:29;;;;;;;;;;;5.90;99.90;;;;;;4938950;29;19950;-83
2022/09/29 00:33:56;;;;;;;;;;;5.90;99.90;;;;;;4950099;28;19921;-83
2022/09/29 00:36:22;;;;;;;;;;;5.90;99.90;;;;;;4928765;29;20379;-83
2022/09/29 00:38:48;;;;;;;;;;;5.90;99.90;;;;;;4930419;29;19910;-83
2022/09/29 00:41:16;;;;;;;;;;;5.80;99.90;;;;;;4938752;29;20394;-83
2022/09/29 00:43:45;;;;;;;;;;;5.90;99.90;;;;;;4966926;28;19914;-84
2022/09/29 00:46:11;;;;;;;;;;;5.90;99.90;;;;;;4949659;29;19976;-83
2022/09/29 00:48:37;;;;;;;;;;;5.90;99.90;;;;;;4953195;29;19941;-83
2022/09/29 00:51:03;;;;;;;;;;;5.90;99.90;;;;;;4953592;29;19906;-83
2022/09/29 00:53:28;;;;;;;;;;;5.90;99.90;;;;;;4935823;29;19942;-84
2022/09/29 00:56:02;;;;;;;;;;;5.90;99.90;;;;;;4934542;29;19914;-84
2022/09/29 00:58:31;;;;;;;;;;;5.80;99.90;;;;;;4930798;29;20005;-83
2022/09/29 01:00:56;;;;;;;;;;;5.80;99.90;;;;;;4942045;29;19914;-83
2022/09/29 01:03:24;;;;;;;;;;;5.80;99.90;;;;;;4934192;29;20001;-84
2022/09/29 01:05:51;;;;;;;;;;;5.80;99.90;;;;;;4947973;29;19924;-83
2022/09/29 01:08:21;;;;;;;;;;;5.80;99.90;;;;;;4951158;29;19914;-83
2022/09/29 01:10:47;;;;;;;;;;;5.80;99.90;;;;;;4936706;29;19965;-85
2022/09/29 01:13:13;;;;;;;;;;;5.80;99.90;;;;;;4947432;29;19918;-84
2022/09/29 01:15:39;;;;;;;;;;;5.80;99.90;;;;;;4936896;29;19921;-82
2022/09/29 01:18:05;;;;;;;;;;;5.80;99.90;;;;;;4952583;29;19914;-84
2022/09/29 01:20:33;;;;;;;;;;;5.80;99.90;;;;;;4947829;29;19956;-84
2022/09/29 01:23:21;;;;;;;;;;;5.80;99.90;;;;;;4935976;29;20465;-84
2022/09/29 01:25:47;;;;;;;;;;;5.80;99.90;;;;;;4952537;28;20298;-84
2022/09/29 01:28:28;;;;;;;;;;;5.80;99.90;;;;;;4950526;29;19907;-84
2022/09/29 01:30:54;;;;;;;;;;;5.80;99.90;;;;;;4945180;29;19926;-84
2022/09/29 01:33:22;;;;;;;;;;;5.70;99.90;;;;;;4951971;29;19918;-85
2022/09/29 01:36:03;;;;;;;;;;;5.70;99.90;;;;;;4948343;28;19945;-84
2022/09/29 01:38:53;;;;;;;;;;;5.70;99.90;;;;;;4950895;29;20084;-84
2022/09/29 01:41:37;;;;;;;;;;;5.80;99.90;;;;;;4949044;29;19911;-84
2022/09/29 01:44:06;;;;;;;;;;;5.80;99.90;;;;;;4947867;28;19911;-84
2022/09/29 01:46:37;;;;;;;;;;;5.80;99.90;;;;;;4941044;29;20386;-84
2022/09/29 01:49:03;;;;;;;;;;;5.80;99.90;;;;;;4952186;29;19997;-84
2022/09/29 01:51:44;;;;;;;;;;;5.90;99.90;;;;;;4959626;28;19925;-85
2022/09/29 01:54:12;;;;;;;;;;;5.80;99.90;;;;;;4940961;29;20303;-83
2022/09/29 01:56:53;;;;;;;;;;;5.80;99.90;;;;;;4948171;29;19914;-83
2022/09/29 01:59:27;;;;;;;;;;;5.80;99.90;;;;;;4941934;29;19910;-85
2022/09/29 02:01:55;;;;;;;;;;;5.80;99.90;;;;;;4943206;29;20375;-84
2022/09/29 02:04:24;;;;;;;;;;;5.70;99.90;;;;;;4951940;29;19962;-84
2022/09/29 02:06:56;;;;;;;;;;;5.70;99.90;;;;;;4956176;28;19920;-84
2022/09/29 02:09:25;;;;;;;;;;;5.70;99.90;;;;;;4949885;29;19965;-83
2022/09/29 02:11:52;;;;;;;;;;;5.70;99.90;;;;;;4949938;29;20578;-84
2022/09/29 02:14:20;;;;;;;;;;;5.70;99.90;;;;;;4935463;29;19922;-84
2022/09/29 02:16:47;;;;;;;;;;;5.60;99.90;;;;;;4938405;29;20014;-83
2022/09/29 02:19:18;;;;;;;;;;;5.60;99.90;;;;;;4938584;29;19938;-83
2022/09/29 02:21:44;;;;;;;;;;;5.60;99.90;;;;;;4935137;29;20332;-83
2022/09/29 02:24:10;;;;;;;;;;;5.60;99.90;;;;;;4947619;29;19938;-84
2022/09/29 02:26:36;;;;;;;;;;;5.60;99.90;;;;;;4932091;29;19945;-84
2022/09/29 02:29:03;;;;;;;;;;;5.70;99.90;;;;;;4947783;29;19911;-84
2022/09/29 02:31:29;;;;;;;;;;;5.70;99.90;;;;;;4956057;28;19911;-83
2022/09/29 02:33:55;;;;;;;;;;;5.80;99.90;;;;;;4948022;29;19914;-83
2022/09/29 02:36:32;;;;;;;;;;;5.70;99.90;;;;;;4948022;29;19965;-84
2022/09/29 02:39:05;;;;;;;;;;;5.80;99.90;;;;;;4935328;29;19989;-84
2022/09/29 02:41:38;;;;;;;;;;;5.70;99.90;;;;;;4948480;29;20009;-85
2022/09/29 02:44:03;;;;;;;;;;;5.70;99.90;;;;;;4950772;29;19953;-82
2022/09/29 02:46:48;;;;;;;;;;;5.70;99.90;;;;;;4945104;29;19937;-82
2022/09/29 02:49:25;;;;;;;;;;;5.70;99.90;;;;;;4947791;29;19937;-84
2022/09/29 02:51:58;;;;;;;;;;;5.70;99.90;;;;;;4950726;29;19917;-82
2022/09/29 02:54:34;;;;;;;;;;;5.80;99.90;;;;;;4934960;29;19915;-83
2022/09/29 02:57:11;;;;;;;;;;;5.80;99.90;;;;;;4949262;28;19916;-82
2022/09/29 02:59:44;;;;;;;;;;;5.80;99.90;;;;;;4968906;28;19989;-84
2022/09/29 03:02:10;;;;;;;;;;;5.90;99.90;;;;;;4959369;28;19966;-83
2022/09/29 03:04:36;;;;;;;;;;;5.80;99.90;;;;;;4934586;28;20334;-84
2022/09/29 03:07:02;;;;;;;;;;;5.80;99.90;;;;;;4950356;28;19942;-84
2022/09/29 03:09:27;;;;;;;;;;;5.80;99.90;;;;;;4950784;29;20306;-83
2022/09/29 03:11:53;;;;;;;;;;;5.80;99.90;;;;;;4943745;29;19945;-83
2022/09/29 03:14:19;;;;;;;;;;;5.90;99.90;;;;;;4929893;29;19941;-84
2022/09/29 03:16:45;;;;;;;;;;;5.90;99.90;;;;;;4950238;29;19914;-80
2022/09/29 03:19:10;;;;;;;;;;;6.00;99.90;;;;;;4934710;29;19921;-84
2022/09/29 03:21:36;;;;;;;;;;;6.00;99.90;;;;;;4948135;29;19924;-84
2022/09/29 03:24:01;;;;;;;;;;;5.90;99.90;;;;;;4934242;29;19910;-84
2022/09/29 03:26:29;;;;;;;;;;;5.90;99.90;;;;;;4951604;28;20411;-84
2022/09/29 03:28:54;;;;;;;;;;;5.90;99.90;;;;;;4941668;29;19941;-83
2022/09/29 03:31:20;;;;;;;;;;;5.90;99.90;;;;;;4949301;28;20343;-84
2022/09/29 03:33:45;;;;;;;;;;;5.80;99.90;;;;;;4965738;28;19924;-84
2022/09/29 03:36:11;;;;;;;;;;;5.80;99.90;;;;;;4945578;29;19915;-82
2022/09/29 03:38:37;;;;;;;;;;;5.80;99.90;;;;;;4950200;29;19938;-84
2022/09/29 03:41:03;;;;;;;;;;;5.80;99.90;;;;;;4949045;29;19973;-84
2022/09/29 03:43:29;;;;;;;;;;;5.80;99.90;;;;;;4936318;29;19936;-86
2022/09/29 03:45:55;;;;;;;;;;;5.80;99.90;;;;;;4951362;29;19911;-83
2022/09/29 03:48:21;;;;;;;;;;;5.80;99.90;;;;;;4950869;29;19965;-85
2022/09/29 03:50:48;;;;;;;;;;;5.80;99.90;;;;;;4953008;28;19914;-84
2022/09/29 03:53:14;;;;;;;;;;;5.70;99.90;;;;;;4951884;29;19914;-84
2022/09/29 03:55:40;;;;;;;;;;;5.70;99.90;;;;;;4948683;28;19921;-82
2022/09/29 03:58:06;;;;;;;;;;;5.70;99.90;;;;;;4933793;29;19918;-85
2022/09/29 04:00:32;;;;;;;;;;;5.60;99.90;;;;;;4933690;29;20536;-85
2022/09/29 04:02:58;;;;;;;;;;;5.70;99.90;;;;;;4948982;29;19914;-85
2022/09/29 04:05:24;;;;;;;;;;;5.70;99.90;;;;;;4950509;29;19914;-84
2022/09/29 04:07:49;;;;;;;;;;;5.60;99.90;;;;;;4940314;29;19962;-86
2022/09/29 04:10:15;;;;;;;;;;;5.60;99.90;;;;;;4935791;29;19926;-83
2022/09/29 04:12:41;;;;;;;;;;;5.50;99.90;;;;;;4950206;29;20291;-84
2022/09/29 04:15:07;;;;;;;;;;;5.40;99.90;;;;;;4947616;29;19961;-83
2022/09/29 04:17:32;;;;;;;;;;;5.40;99.90;;;;;;4951658;28;19915;-85
2022/09/29 04:19:58;;;;;;;;;;;5.40;99.90;;;;;;4946763;29;19914;-84
2022/09/29 04:22:24;;;;;;;;;;;5.50;99.90;;;;;;4938244;29;19914;-84
2022/09/29 04:24:50;;;;;;;;;;;5.50;99.90;;;;;;4935132;29;20302;-83
2022/09/29 04:27:17;;;;;;;;;;;5.40;99.90;;;;;;4955959;28;19940;-84
2022/09/29 04:29:43;;;;;;;;;;;5.50;99.90;;;;;;4954294;29;19914;-84
2022/09/29 04:32:08;;;;;;;;;;;5.40;99.90;;;;;;4947326;29;20299;-83
2022/09/29 04:34:34;;;;;;;;;;;5.40;99.90;;;;;;4934060;29;19918;-84
2022/09/29 04:37:00;;;;;;;;;;;5.40;99.90;;;;;;4953697;29;19910;-85
2022/09/29 04:39:26;;;;;;;;;;;5.40;99.90;;;;;;4953924;29;20491;-83
2022/09/29 04:41:51;;;;;;;;;;;5.40;99.90;;;;;;4950528;29;19911;-83
2022/09/29 04:44:21;;;;;;;;;;;5.50;99.90;;;;;;4952860;28;19946;-84
2022/09/29 04:46:50;;;;;;;;;;;5.50;99.90;;;;;;4945995;29;19918;-85
2022/09/29 04:49:17;;;;;;;;;;;5.60;99.90;;;;;;4940566;29;20275;-83
2022/09/29 04:51:42;;;;;;;;;;;5.60;99.90;;;;;;4951568;29;19925;-83
2022/09/29 04:54:08;;;;;;;;;;;5.60;99.90;;;;;;4954668;28;19911;-85
2022/09/29 04:56:34;;;;;;;;;;;5.60;99.90;;;;;;4953623;29;19910;-83
2022/09/29 04:59:00;;;;;;;;;;;5.70;99.90;;;;;;4937966;29;19914;-85
2022/09/29 05:01:26;;;;;;;;;;;5.70;99.90;;;;;;4952354;28;20330;-85
2022/09/29 05:03:52;;;;;;;;;;;5.70;99.90;;;;;;4950723;29;19969;-83
2022/09/29 05:06:18;;;;;;;;;;;5.70;99.90;;;;;;4959794;28;20330;-85
2022/09/29 05:08:43;;;;;;;;;;;5.70;99.90;;;;;;4955308;29;19921;-84
2022/09/29 05:11:09;;;;;;;;;;;5.70;99.90;;;;;;4949890;29;19923;-84
2022/09/29 05:13:36;;;;;;;;;;;5.70;99.90;;;;;;4934878;29;19918;-83
2022/09/29 05:16:02;;;;;;;;;;;5.60;99.90;;;;;;4952644;28;19970;-84
2022/09/29 05:18:27;;;;;;;;;;;5.60;99.90;;;;;;4934070;29;19907;-83
2022/09/29 05:20:54;;;;;;;;;;;5.60;99.90;;;;;;4940850;29;20009;-84
2022/09/29 05:23:19;;;;;;;;;;;5.60;99.90;;;;;;4934804;29;19922;-83
2022/09/29 05:25:45;;;;;;;;;;;5.60;99.90;;;;;;4942034;29;19910;-83
2022/09/29 05:28:11;;;;;;;;;;;5.70;99.90;;;;;;4952966;28;19915;-83
2022/09/29 05:30:37;;;;;;;;;;;5.70;99.90;;;;;;4952888;29;19931;-84
2022/09/29 05:33:04;;;;;;;;;;;5.70;99.90;;;;;;4949225;29;20001;-84
2022/09/29 05:35:29;;;;;;;;;;;5.80;99.90;;;;;;4960091;28;19910;-83
2022/09/29 05:37:55;;;;;;;;;;;5.70;99.90;;;;;;4951549;29;20491;-85
2022/09/29 05:40:24;;;;;;;;;;;5.70;99.90;;;;;;4954995;28;19921;-83
2022/09/29 05:42:50;;;;;;;;;;;5.60;99.90;;;;;;4936877;29;20055;-82
2022/09/29 05:45:16;;;;;;;;;;;5.60;99.90;;;;;;4950230;29;19920;-83
2022/09/29 05:47:43;;;;;;;;;;;5.70;99.90;;;;;;4953092;29;19911;-82
2022/09/29 05:50:10;;;;;;;;;;;5.70;99.90;;;;;;4941597;28;19957;-83
2022/09/29 05:52:36;;;;;;;;;;;5.60;99.90;;;;;;4945674;29;19918;-83
2022/09/29 05:55:01;;;;;;;;;;;5.60;99.90;;;;;;4950235;29;19965;-85
2022/09/29 05:57:27;;;;;;;;;;;5.50;99.90;;;;;;4948984;29;19950;-84
2022/09/29 05:59:53;;;;;;;;;;;5.50;99.90;;;;;;4951992;28;20403;-84
2022/09/29 06:02:18;;;;;;;;;;;5.60;99.90;;;;;;4946961;29;19921;-85
2022/09/29 06:04:44;;;;;;;;;;;5.60;99.90;;;;;;4951575;29;19922;-84
2022/09/29 06:07:09;;;;;;;;;;;5.60;99.90;;;;;;4950558;28;19951;-86
2022/09/29 06:09:35;;;;;;;;;;;5.60;99.90;;;;;;4954142;28;20152;-85
2022/09/29 06:12:01;;;;;;;;;;;5.60;99.90;;;;;;4949763;29;19914;-85
2022/09/29 06:14:27;;;;;;;;;;;5.70;99.90;;;;;;4944560;28;19915;-84
2022/09/29 06:16:53;;;;;;;;;;;5.80;99.90;;;;;;4959435;28;19983;-84
2022/09/29 06:19:18;;;;;;;;;;;5.90;99.90;;;;;;4964595;28;19949;-86
2022/09/29 06:21:44;;;;;;;;;;;6.00;99.90;;;;;;4940248;29;19914;-86
2022/09/29 06:24:10;;;;;;;;;;;6.20;99.90;;;;;;4946660;29;19920;-84
2022/09/29 06:26:36;;;;;;;;;;;6.40;99.90;;;;;;4951249;29;19973;-84
2022/09/29 06:29:03;;;;;;;;;;;6.60;99.90;;;;;;4952554;29;20001;-85
2022/09/29 06:31:29;;;;;;;;;;;6.80;99.90;;;;;;4946018;29;20282;-85
2022/09/29 06:33:55;;;;;;;;;;;7.20;99.90;;;;;;4945568;28;19922;-84
2022/09/29 06:39:12;;;;;;;;;;;7.60;99.90;;;;;;4945236;29;19910;-84
2022/09/29 06:41:37;;;;;;;;;;;7.60;99.90;;;;;;4956656;28;20446;-84
2022/09/29 06:44:05;;;;;;;;;;;7.50;99.90;;;;;;4947423;29;19917;-85
2022/09/29 06:46:31;;;;;;;;;;;7.50;99.90;;;;;;4941912;29;20005;-84
2022/09/29 06:48:56;;;;;;;;;;;7.50;99.90;;;;;;4935070;29;20367;-85
2022/09/29 06:51:23;;;;;;;;;;;7.40;99.90;;;;;;4950236;29;20018;-83
2022/09/29 06:53:49;;;;;;;;;;;7.50;99.90;;;;;;4938525;29;19918;-85
2022/09/29 06:56:15;;;;;;;;;;;7.50;99.90;;;;;;4946101;29;19925;-85
2022/09/29 06:58:40;;;;;;;;;;;7.40;99.90;;;;;;4959311;28;19918;-85
2022/09/29 07:01:06;;;;;;;;;;;7.20;99.90;;;;;;4935203;29;19926;-85
2022/09/29 07:03:34;;;;;;;;;;;7.10;99.90;;;;;;4945127;29;19919;-84
2022/09/29 07:06:01;;;;;;;;;;;7.20;99.90;;;;;;4941303;29;20303;-84
2022/09/29 07:08:27;;;;;;;;;;;7.30;99.90;;;;;;4951146;29;20574;-84
2022/09/29 07:10:54;;;;;;;;;;;7.60;99.90;;;;;;4933748;29;20405;-84
2022/09/29 07:13:19;;;;;;;;;;;7.90;99.90;;;;;;4950915;28;20450;-86
2022/09/29 07:15:46;;;;;;;;;;;8.30;99.90;;;;;;4950345;29;19914;-85
2022/09/29 07:18:12;;;;;;;;;;;8.40;99.90;;;;;;4935259;29;19921;-85
2022/09/29 07:20:39;;;;;;;;;;;8.80;99.90;;;;;;4948697;29;20001;-84
2022/09/29 07:23:06;;;;;;;;;;;9.10;99.90;;;;;;4937143;29;20383;-85
2022/09/29 07:25:33;;;;;;;;;;;9.30;99.90;;;;;;4935166;29;19953;-84
2022/09/29 07:27:59;;;;;;;;;;;9.30;99.90;;;;;;4951241;29;19961;-84
2022/09/29 07:30:26;;;;;;;;;;;9.30;99.90;;;;;;4949326;29;19933;-84
2022/09/29 07:32:55;;;;;;;;;;;9.30;99.90;;;;;;4935097;29;19922;-85
2022/09/29 07:35:21;;;;;;;;;;;9.20;99.90;;;;;;4919169;29;20064;-85
2022/09/29 07:37:50;;;;;;;;;;;9.10;99.90;;;;;;4934996;29;20008;-85
2022/09/29 07:40:16;;;;;;;;;;;9.00;99.90;;;;;;4950902;28;19984;-84
2022/09/29 07:42:41;;;;;;;;;;;9.00;99.90;;;;;;4935040;29;20331;-85
2022/09/29 07:45:07;;;;;;;;;;;9.00;99.90;;;;;;4951836;28;19918;-83
2022/09/29 07:47:33;;;;;;;;;;;9.00;99.90;;;;;;4951575;28;19918;-85
2022/09/29 07:49:58;;;;;;;;;;;9.10;99.90;;;;;;4951849;28;19918;-85
2022/09/29 07:52:24;;;;;;;;;;;9.10;99.90;;;;;;4934238;29;19914;-84
2022/09/29 07:54:49;;;;;;;;;;;9.00;99.90;;;;;;4934821;29;20295;-85
2022/09/29 07:57:15;;;;;;;;;;;9.00;99.90;;;;;;4949735;28;19915;-84
2022/09/29 07:59:41;;;;;;;;;;;9.20;99.90;;;;;;4935870;29;20013;-84
2022/09/29 08:02:06;;;;;;;;;;;9.20;99.90;;;;;;4933995;29;19914;-85
2022/09/29 08:04:32;;;;;;;;;;;9.30;99.90;;;;;;4927331;29;19923;-85
2022/09/29 08:06:58;;;;;;;;;;;9.40;99.90;;;;;;4951627;29;19949;-83
2022/09/29 08:09:24;;;;;;;;;;;9.40;99.90;;;;;;4936795;29;20302;-83
2022/09/29 08:11:49;;;;;;;;;;;9.40;99.90;;;;;;4953622;28;19918;-85
2022/09/29 08:14:15;;;;;;;;;;;9.40;99.90;;;;;;4923041;29;20512;-84
2022/09/29 08:16:41;;;;;;;;;;;9.50;99.90;;;;;;4944951;29;19925;-84
2022/09/29 08:19:06;;;;;;;;;;;9.50;99.90;;;;;;4929069;28;19922;-84
2022/09/29 08:21:35;;;;;;;;;;;9.80;99.90;;;;;;4944434;29;20693;-85
2022/09/29 08:24:03;;;;;;;;;;;9.90;99.90;;;;;;4940103;29;19921;-83
2022/09/29 08:26:30;;;;;;;;;;;10.10;99.90;;;;;;4946249;29;19915;-84
2022/09/29 08:28:56;;;;;;;;;;;10.30;99.90;;;;;;4948181;29;19977;-84
2022/09/29 08:31:22;;;;;;;;;;;10.30;99.90;;;;;;4938429;29;19915;-83
2022/09/29 08:33:51;;;;;;;;;;;10.20;99.90;;;;;;4944278;29;19973;-83
2022/09/29 08:36:17;;;;;;;;;;;10.30;99.90;;;;;;4941662;29;19914;-82
2022/09/29 08:38:44;;;;;;;;;;;10.30;99.90;;;;;;4958202;28;19949;-82
2022/09/29 08:41:33;;;;;;;;;;;10.30;99.90;;;;;;4936396;29;19926;-85
2022/09/29 08:44:02;;;;;;;;;;;10.20;99.90;;;;;;4908562;29;19910;-83
2022/09/29 08:46:30;;;;;;;;;;;10.00;99.90;;;;;;4931225;29;20275;-83
2022/09/29 08:48:59;;;;;;;;;;;9.90;99.90;;;;;;4948519;28;19919;-85
2022/09/29 08:51:29;;;;;;;;;;;10.00;99.90;;;;;;4928600;29;20225;-83
2022/09/29 08:53:56;;;;;;;;;;;10.00;99.90;;;;;;4925892;29;20437;-82
2022/09/29 08:56:23;;;;;;;;;;;10.10;99.90;;;;;;4945481;29;19922;-86
2022/09/29 08:58:50;;;;;;;;;;;10.20;99.90;;;;;;4944066;29;19925;-83
2022/09/29 09:01:18;;;;;;;;;;;10.30;99.90;;;;;;4936687;29;19914;-84
2022/09/29 09:04:04;;;;;;;;;;;10.40;99.90;;;;;;4942659;28;19922;-84
2022/09/29 09:06:41;;;;;;;;;;;10.50;99.90;;;;;;4942494;28;19914;-83
2022/09/29 09:09:08;;;;;;;;;;;10.60;99.90;;;;;;4944264;29;19917;-83
2022/09/29 09:11:50;;;;;;;;;;;10.60;99.90;;;;;;4951202;28;19925;-83
2022/09/29 09:14:16;;;;;;;;;;;10.70;99.90;;;;;;4944791;29;19914;-85
2022/09/29 09:16:51;;;;;;;;;;;10.70;99.90;;;;;;4957259;28;20457;-84
2022/09/29 09:19:43;;;;;;;;;;;10.80;99.90;;;;;;4951880;28;19922;-84
2022/09/29 09:22:27;;;;;;;;;;;10.80;99.90;;;;;;4959681;28;19919;-84
2022/09/29 09:24:57;;;;;;;;;;;11.00;99.90;;;;;;4930552;29;20443;-83
2022/09/29 09:27:30;;;;;;;;;;;11.00;99.90;;;;;;4949052;29;19914;-83
2022/09/29 09:30:06;;;;;;;;;;;11.00;99.90;;;;;;4949847;28;19921;-82
2022/09/29 09:32:39;;;;;;;;;;;11.10;99.90;;;;;;4944219;29;19997;-83
2022/09/29 09:35:17;;;;;;;;;;;11.10;99.90;;;;;;4944834;28;19957;-82
2022/09/29 09:37:43;;;;;;;;;;;11.10;99.90;;;;;;4942181;29;19910;-84
2022/09/29 09:40:10;;;;;;;;;;;11.10;99.90;;;;;;4931717;29;20570;-82
2022/09/29 09:42:38;;;;;;;;;;;11.00;99.90;;;;;;4946929;29;20350;-83
2022/09/29 09:45:07;;;;;;;;;;;11.10;99.90;;;;;;4917295;29;19914;-83
2022/09/29 09:47:45;;;;;;;;;;;11.10;99.90;;;;;;4951047;29;19921;-85
2022/09/29 09:50:15;;;;;;;;;;;11.20;99.90;;;;;;4947444;28;19910;-84
2022/09/29 09:52:47;;;;;;;;;;;11.30;99.90;;;;;;4948317;28;19962;-84
2022/09/29 09:55:26;;;;;;;;;;;11.30;99.90;;;;;;4948506;29;20009;-83
2022/09/29 09:57:56;;;;;;;;;;;11.30;99.90;;;;;;4938662;29;19911;-82
2022/09/29 10:00:29;;;;;;;;;;;11.20;99.90;;;;;;4944659;29;20042;-83
2022/09/29 10:02:55;;;;;;;;;;;11.10;99.90;;;;;;4947177;29;19914;-84
2022/09/29 10:05:23;;;;;;;;;;;11.10;99.90;;;;;;4946220;29;19953;-83
2022/09/29 10:07:49;;;;;;;;;;;11.20;99.90;;;;;;4960955;28;19958;-84
2022/09/29 10:10:20;;;;;;;;;;;11.30;99.90;;;;;;4947465;29;19914;-83
2022/09/29 10:12:48;;;;;;;;;;;11.30;99.90;;;;;;4949152;29;19917;-83
2022/09/29 10:15:20;;;;;;;;;;;11.40;99.90;;;;;;4946048;28;19946;-84
2022/09/29 10:17:47;;;;;;;;;;;11.50;99.90;;;;;;4955084;28;19961;-83
2022/09/29 10:20:20;;;;;;;;;;;11.60;99.90;;;;;;4968669;28;19948;-84
2022/09/29 10:22:47;;;;;;;;;;;11.60;99.90;;;;;;4953158;28;19953;-85
2022/09/29 10:25:18;;;;;;;;;;;11.70;99.90;;;;;;4943189;28;20514;-86
2022/09/29 10:27:46;;;;;;;;;;;11.70;99.90;;;;;;4966482;28;19914;-84
2022/09/29 10:30:17;;;;;;;;;;;11.80;99.90;;;;;;4930101;28;19922;-84
2022/09/29 10:32:43;;;;;;;;;;;12.00;99.90;;;;;;4938726;28;19910;-84
2022/09/29 10:35:14;;;;;;;;;;;12.10;99.90;;;;;;4949036;28;20653;-85
2022/09/29 10:37:41;;;;;;;;;;;12.10;99.90;;;;;;4914700;29;19910;-83
2022/09/29 10:40:07;;;;;;;;;;;12.00;99.90;;;;;;4956297;28;19915;-86
2022/09/29 10:42:37;;;;;;;;;;;12.00;99.90;;;;;;4941584;29;19925;-84
2022/09/29 10:45:12;;;;;;;;;;;11.90;99.90;;;;;;4946908;29;19922;-83
2022/09/29 10:47:39;;;;;;;;;;;11.90;99.90;;;;;;4929815;29;19918;-84
2022/09/29 10:50:15;;;;;;;;;;;11.90;99.90;;;;;;4933143;29;19918;-84
2022/09/29 10:53:00;;;;;;;;;;;11.90;99.90;;;;;;4932306;28;19918;-83
2022/09/29 10:55:27;;;;;;;;;;;12.10;99.90;;;;;;4939996;28;19929;-83
2022/09/29 10:57:54;;;;;;;;;;;12.30;99.90;;;;;;4955090;28;19917;-85
2022/09/29 11:00:37;;;;;;;;;;;12.20;99.90;;;;;;4943924;29;19918;-88
2022/09/29 11:03:25;;;;;;;;;;;12.30;99.90;;;;;;4941398;28;20042;-85
2022/09/29 11:05:54;;;;;;;;;;;12.50;99.90;;;;;;4921977;29;19958;-85
2022/09/29 11:08:24;;;;;;;;;;;12.50;99.90;;;;;;4944928;29;19910;-87
2022/09/29 11:11:10;;;;;;;;;;;12.30;99.90;;;;;;4932208;29;19954;-88
2022/09/29 11:13:37;;;;;;;;;;;12.30;99.90;;;;;;4938776;28;19921;-85
2022/09/29 11:16:16;;;;;;;;;;;12.50;99.90;;;;;;4926978;29;20009;-82
2022/09/29 11:18:43;;;;;;;;;;;12.50;99.90;;;;;;4925654;29;20545;-83
2022/09/29 11:21:08;;;;;;;;;;;12.50;99.90;;;;;;4934676;28;19910;-82
2022/09/29 11:23:39;;;;;;;;;;;12.50;99.90;;;;;;4937531;28;19910;-82
2022/09/29 11:26:13;;;;;;;;;;;12.50;99.90;;;;;;4943140;28;19937;-81
2022/09/29 11:28:45;;;;;;;;;;;12.60;99.90;;;;;;4942991;28;19917;-82
2022/09/29 11:31:30;;;;;;;;;;;12.70;99.90;;;;;;4926778;29;19969;-83
2022/09/29 11:34:14;;;;;;;;;;;12.60;99.90;;;;;;4946446;28;20434;-82
2022/09/29 11:36:59;;;;;;;;;;;12.30;99.90;;;;;;4944254;29;19917;-81
2022/09/29 11:39:25;;;;;;;;;;;12.10;99.90;;;;;;4951431;28;19933;-82
2022/09/29 11:42:09;;;;;;;;;;;11.90;99.90;;;;;;4940518;29;20371;-81
2022/09/29 11:44:35;;;;;;;;;;;11.60;99.90;;;;;;4938457;29;19910;-81
2022/09/29 11:47:07;;;;;;;;;;;11.30;99.90;;;;;;4951552;29;19930;-82
2022/09/29 11:49:44;;;;;;;;;;;11.30;99.90;;;;;;4947038;29;20544;-82
2022/09/29 11:52:29;;;;;;;;;;;11.30;99.90;;;;;;4946026;28;20401;-82
2022/09/29 11:54:56;;;;;;;;;;;11.40;99.90;;;;;;4945945;28;19919;-82
2022/09/29 11:57:25;;;;;;;;;;;11.10;99.90;;;;;;4941601;29;19910;-82
2022/09/29 11:59:53;;;;;;;;;;;11.10;99.90;;;;;;4947975;28;20398;-81
2022/09/29 12:02:28;;;;;;;;;;;11.10;99.90;;;;;;4948174;29;19911;-81
2022/09/29 12:04:59;;;;;;;;;;;11.10;99.90;;;;;;4940548;28;19911;-82
2022/09/29 12:07:39;;;;;;;;;;;11.30;99.90;;;;;;4950487;29;19910;-81
2022/09/29 12:10:43;;;;;;;;;;;11.30;99.90;;;;;;4951365;28;19914;-81
2022/09/29 12:13:32;;;;;;;;;;;11.40;99.90;;;;;;4890790;29;19918;-80
2022/09/29 12:16:01;;;;;;;;;;;11.40;99.90;;;;;;4891729;29;19922;-82
2022/09/29 12:18:45;;;;;;;;;;;11.40;99.90;;;;;;4927453;29;20005;-81
2022/09/29 12:21:12;;;;;;;;;;;11.40;99.90;;;;;;4945238;28;20279;-81
2022/09/29 12:23:39;;;;;;;;;;;11.50;99.90;;;;;;4946669;29;19917;-81
2022/09/29 12:26:23;;;;;;;;;;;11.50;99.90;;;;;;4946420;29;19911;-81
2022/09/29 12:28:49;;;;;;;;;;;11.50;99.90;;;;;;4930553;29;20396;-81
2022/09/29 12:31:27;;;;;;;;;;;11.50;99.90;;;;;;4937538;28;19946;-82
2022/09/29 12:34:05;;;;;;;;;;;11.50;99.90;;;;;;4964705;28;19914;-81
2022/09/29 12:37:04;;;;;;;;;;;11.60;99.90;;;;;;4946971;29;19943;-81
2022/09/29 12:39:33;;;;;;;;;;;11.60;99.90;;;;;;4926281;29;20438;-81
2022/09/29 12:42:22;;;;;;;;;;;11.50;99.90;;;;;;4948840;29;19914;-81
2022/09/29 12:44:49;;;;;;;;;;;11.60;99.90;;;;;;4934673;29;20002;-82
2022/09/29 12:47:35;;;;;;;;;;;11.70;99.90;;;;;;4938706;29;19921;-82
2022/09/29 12:50:14;;;;;;;;;;;11.70;99.90;;;;;;4948966;29;19977;-81
2022/09/29 12:52:43;;;;;;;;;;;11.70;99.90;;;;;;4946136;29;19917;-81
2022/09/29 12:55:14;;;;;;;;;;;11.60;99.90;;;;;;4946348;29;19922;-81
2022/09/29 12:57:41;;;;;;;;;;;11.50;99.90;;;;;;4976916;28;19910;-82
2022/09/29 13:00:11;;;;;;;;;;;11.40;99.90;;;;;;4945787;29;19965;-82
2022/09/29 13:02:39;;;;;;;;;;;11.30;99.90;;;;;;4946210;29;19926;-81
2022/09/29 13:05:23;;;;;;;;;;;11.20;99.90;;;;;;4947000;29;19911;-82
2022/09/29 13:07:49;;;;;;;;;;;11.10;99.90;;;;;;4949946;29;19911;-81
2022/09/29 13:10:18;;;;;;;;;;;11.10;99.90;;;;;;4937228;28;19917;-81
2022/09/29 13:13:02;;;;;;;;;;;11.10;99.90;;;;;;4948849;29;19922;-81
2022/09/29 13:15:40;;;;;;;;;;;11.00;99.90;;;;;;4935471;29;19918;-81
2022/09/29 13:18:24;;;;;;;;;;;11.00;99.90;;;;;;4939780;29;19911;-81
2022/09/29 13:21:10;;;;;;;;;;;10.90;99.90;;;;;;4942843;28;20660;-79
2022/09/29 13:23:39;;;;;;;;;;;10.90;99.90;;;;;;4911373;29;19914;-82
2022/09/29 13:26:18;;;;;;;;;;;10.90;99.90;;;;;;4949358;29;19910;-83
2022/09/29 13:28:45;;;;;;;;;;;10.90;99.90;;;;;;4948744;29;19921;-83
2022/09/29 13:31:17;;;;;;;;;;;10.80;99.90;;;;;;4948526;28;19910;-82
2022/09/29 13:33:47;;;;;;;;;;;10.80;99.90;;;;;;4967624;28;20354;-83
2022/09/29 13:36:24;;;;;;;;;;;10.70;99.90;;;;;;4951860;29;19966;-83
2022/09/29 13:38:54;;;;;;;;;;;10.80;99.90;;;;;;4940822;29;20291;-83
2022/09/29 13:41:22;;;;;;;;;;;10.90;99.90;;;;;;4945885;29;20004;-82
2022/09/29 13:43:48;;;;;;;;;;;10.90;99.90;;;;;;4943321;28;20002;-83
2022/09/29 13:46:25;;;;;;;;;;;11.00;99.90;;;;;;4950063;29;19965;-84
2022/09/29 13:48:51;;;;;;;;;;;11.00;99.90;;;;;;4948674;29;20363;-83
2022/09/29 13:51:21;;;;;;;;;;;11.10;99.90;;;;;;4949810;28;19914;-82
2022/09/29 13:54:07;;;;;;;;;;;11.20;99.90;;;;;;4952153;28;20287;-82
2022/09/29 13:56:32;;;;;;;;;;;11.20;99.90;;;;;;4950137;29;19914;-82
2022/09/29 13:58:59;;;;;;;;;;;11.30;99.90;;;;;;4935754;29;20534;-82
2022/09/29 14:01:35;;;;;;;;;;;11.30;99.90;;;;;;4944817;29;19918;-82
2022/09/29 14:04:19;;;;;;;;;;;11.20;99.90;;;;;;4959850;28;20415;-83
2022/09/29 14:06:46;;;;;;;;;;;11.10;99.90;;;;;;4950832;28;19914;-83
2022/09/29 14:09:14;;;;;;;;;;;11.10;99.90;;;;;;4946287;29;19911;-84
2022/09/29 14:11:54;;;;;;;;;;;11.10;99.90;;;;;;4938142;29;19915;-84
2022/09/29 14:14:30;;;;;;;;;;;11.00;99.90;;;;;;4944353;28;19914;-83
2022/09/29 14:17:06;;;;;;;;;;;11.00;99.90;;;;;;4962043;28;20307;-82
2022/09/29 14:19:38;;;;;;;;;;;10.90;99.90;;;;;;4943817;28;19985;-84
2022/09/29 14:22:24;;;;;;;;;;;10.90;99.90;;;;;;4943667;29;19918;-84
2022/09/29 14:24:51;;;;;;;;;;;10.80;99.90;;;;;;4938250;29;19922;-84
2022/09/29 14:27:20;;;;;;;;;;;10.80;99.90;;;;;;4946172;29;19914;-85
2022/09/29 14:29:52;;;;;;;;;;;10.80;99.90;;;;;;4948780;29;20700;-84
2022/09/29 14:32:27;;;;;;;;;;;10.70;99.90;;;;;;4940805;28;19952;-84
2022/09/29 14:34:53;;;;;;;;;;;10.70;99.90;;;;;;4961772;28;19961;-84
2022/09/29 14:37:20;;;;;;;;;;;10.70;99.90;;;;;;4962351;28;20371;-84
2022/09/29 14:40:26;;;;;;;;;;;10.60;99.90;;;;;;4944602;29;19910;-84
2022/09/29 14:42:31;;;;;;;;;;;10.60;99.90;;;;;;4934734;29;19950;-84